Terminal Aerodrome Forecast
Issued by NWS Tulsa, OK

Home | Current Version | Previous Version | Text Only | Print | Product List | Glossary On
Versions: 1 2 3 4 5 6 7 8 9 10 11 12 13 14 15
000
FTUS44 KTSA 110500
TAFTUL
TAF
KTUL 110520Z 1106/1206 13007KT P6SM FEW040 BKN110
     FM110800 15006KT P6SM SCT120
     FM111500 18011KT P6SM SKC
     FM111900 19012G20KT P6SM FEW050
     FM120000 17008KT P6SM SCT250=

USA.gov is the U.S. government's official web portal to all federal, state and local government web resources and services.